GQPA/ATR METAR and TAF weather

Enter ICAO airport designator
Station Type Date Time Source
GQPA METAR 2019/02/23 09:00 UTC NOAA

GQPA 230900Z VRB02KT BR NSC 20/M03 Q1019


Station Type Date Time Source
GQPA Decoded METAR 2019/02/23 09:00 UTC NOAA

Atar, Mauritania (GQPA) 20-31N 013-04W 224M
Feb 23, 2019 - 04:00 AM EST / 2019.02.23 0900 UTC
Wind: Variable at 2 MPH (2 KT):0
Weather: mist
Temperature: 68 F (20 C)
Dew Point: 26 F (-3 C)
Relative Humidity: 20%
Pressure (altimeter): 30.09 in. Hg (1019 hPa)
ob: GQPA 230900Z VRB02KT BR NSC 20/M03 Q1019
cycle: 9

Station Type Date Time Source
GQPA TAF UTC NOAA

Error!


Example: see airport list